createdAt,value
2022-11-05T00:02:28.013Z,3.17
2022-11-05T00:05:13.152Z,3.57
2022-11-05T00:08:01.630Z,3.67
2022-11-05T00:10:31.611Z,3.63
2022-11-05T00:13:18.721Z,3.10
2022-11-05T00:16:04.210Z,2.47
2022-11-05T00:18:32.117Z,3.03
2022-11-05T00:21:00.149Z,4.13
2022-11-05T00:23:45.576Z,4.53
2022-11-05T00:26:13.999Z,3.80
2022-11-05T00:28:44.607Z,2.87
2022-11-05T00:31:14.139Z,3.77
2022-11-05T00:33:43.526Z,2.70
2022-11-05T00:36:12.438Z,2.40
2022-11-05T00:38:40.104Z,2.90
2022-11-05T00:41:08.116Z,2.40
2022-11-05T00:43:53.357Z,2.87
2022-11-05T00:46:23.317Z,3.07
2022-11-05T00:49:08.739Z,3.03
2022-11-05T00:51:36.423Z,2.57
2022-11-05T00:54:04.189Z,2.00
2022-11-05T00:56:31.854Z,3.30
2022-11-05T00:58:59.516Z,2.00
2022-11-05T01:01:29.168Z,2.27
2022-11-05T01:03:56.925Z,2.67
2022-11-05T01:06:25.095Z,2.20
2022-11-05T01:08:53.386Z,3.17
2022-11-05T01:11:34.146Z,1.60
2022-11-05T01:14:02.796Z,2.20
2022-11-05T01:16:32.536Z,1.90
2022-11-05T01:19:00.775Z,2.77
2022-11-05T01:21:28.561Z,1.47
2022-11-05T01:23:56.532Z,1.37
2022-11-05T01:26:24.909Z,2.07
2022-11-05T01:28:53.094Z,2.67
2022-11-05T01:31:20.915Z,2.13
2022-11-05T01:33:50.815Z,1.60
2022-11-05T01:36:19.113Z,1.33
2022-11-05T01:38:47.124Z,1.83
2022-11-05T01:41:14.814Z,1.47
2022-11-05T01:43:50.813Z,1.37
2022-11-05T01:46:22.728Z,1.10
2022-11-05T01:49:00.105Z,1.03
2022-11-05T01:51:31.820Z,1.60
2022-11-05T01:54:04.206Z,1.00
2022-11-05T01:56:38.982Z,1.20
2022-11-05T01:59:12.884Z,1.20
2022-11-05T02:01:40.658Z,1.03
2022-11-05T02:04:14.545Z,0.90
2022-11-05T02:06:45.974Z,2.10
2022-11-05T02:09:17.777Z,1.33
2022-11-05T02:11:45.421Z,0.97
2022-11-05T02:14:13.804Z,1.57
2022-11-05T02:16:47.852Z,1.73
2022-11-05T02:20:00.934Z,0.90
2022-11-05T02:23:04.095Z,1.50
2022-11-05T02:26:00.794Z,1.37
2022-11-05T02:28:50.709Z,0.97
2022-11-05T02:31:27.239Z,2.17
2022-11-05T02:34:03.157Z,1.70
2022-11-05T02:36:41.713Z,2.03
2022-11-05T02:39:25.303Z,2.83
2022-11-05T02:42:05.323Z,1.47
2022-11-05T02:44:40.635Z,2.30
2022-11-05T02:47:22.993Z,1.73
2022-11-05T02:49:58.217Z,2.23
2022-11-05T02:52:33.205Z,1.57
2022-11-05T02:55:09.519Z,1.60
2022-11-05T02:57:37.544Z,1.63
2022-11-05T03:00:08.155Z,1.60
2022-11-05T03:02:37.404Z,1.43
2022-11-05T03:05:06.357Z,2.03
2022-11-05T03:07:48.963Z,1.50
2022-11-05T03:10:28.417Z,1.53
2022-11-05T03:13:09.282Z,1.07
2022-11-05T03:15:50.745Z,1.80
2022-11-05T03:18:27.126Z,1.90
2022-11-05T03:21:03.837Z,1.50
2022-11-05T03:23:39.649Z,1.70
2022-11-05T03:26:17.329Z,1.53
2022-11-05T03:28:50.531Z,1.50
2022-11-05T03:31:19.801Z,1.57
2022-11-05T03:33:52.725Z,1.53
2022-11-05T03:36:25.144Z,1.23
2022-11-05T03:38:55.885Z,1.53
2022-11-05T03:41:25.899Z,1.53
2022-11-05T03:43:59.594Z,2.13
2022-11-05T03:46:30.668Z,1.20
2022-11-05T03:49:04.666Z,1.80
2022-11-05T03:51:39.866Z,1.70
2022-11-05T03:54:08.425Z,1.80
2022-11-05T03:56:41.315Z,1.83
2022-11-05T03:59:11.104Z,1.23
2022-11-05T04:01:40.197Z,1.47
2022-11-05T04:04:10.312Z,1.73
2022-11-05T04:06:54.577Z,2.80
2022-11-05T04:09:40.491Z,1.53
2022-11-05T04:12:27.797Z,1.60
2022-11-05T04:14:55.832Z,1.87
2022-11-05T04:17:22.606Z,2.10
2022-11-05T04:20:09.471Z,1.70
2022-11-05T04:22:55.293Z,1.30
2022-11-05T04:25:23.436Z,1.63
2022-11-05T04:27:51.173Z,1.43
2022-11-05T04:30:19.840Z,1.70
2022-11-05T04:33:01.112Z,2.37
2022-11-05T04:35:32.793Z,1.77
2022-11-05T04:38:00.697Z,1.70
2022-11-05T04:40:29.216Z,1.97
2022-11-05T04:42:57.471Z,2.10
2022-11-05T04:45:27.137Z,1.97
2022-11-05T04:47:54.802Z,2.00
2022-11-05T04:50:23.089Z,2.13
2022-11-05T04:52:52.238Z,2.33
2022-11-05T04:55:19.998Z,1.90
2022-11-05T04:57:49.491Z,2.00
2022-11-05T05:00:18.507Z,2.03
2022-11-05T05:02:46.764Z,1.53
2022-11-05T05:05:15.064Z,2.83
2022-11-05T05:07:42.929Z,3.20
2022-11-05T05:10:12.543Z,2.63
2022-11-05T05:12:40.235Z,1.90
2022-11-05T05:15:08.725Z,2.23
2022-11-05T05:17:36.354Z,3.83
2022-11-05T05:20:22.066Z,2.77
2022-11-05T05:22:52.903Z,3.27
2022-11-05T05:25:22.529Z,2.87
2022-11-05T05:27:50.210Z,3.50
2022-11-05T05:30:18.353Z,3.23
2022-11-05T05:32:46.166Z,2.30
2022-11-05T05:35:13.861Z,2.20
2022-11-05T05:37:41.825Z,3.20
2022-11-05T05:40:10.707Z,3.00
2022-11-05T05:42:43.194Z,2.30
2022-11-05T05:45:12.349Z,3.10
2022-11-05T05:47:40.414Z,1.60
2022-11-05T05:50:08.393Z,2.83
2022-11-05T05:52:36.401Z,2.80
2022-11-05T05:55:04.396Z,2.60
2022-11-05T05:57:32.306Z,3.30
2022-11-05T06:00:01.925Z,2.63
2022-11-05T06:02:39.831Z,2.53
2022-11-05T06:05:08.065Z,2.60
2022-11-05T06:07:37.586Z,2.60
2022-11-05T06:10:06.079Z,3.13
2022-11-05T06:12:34.061Z,2.47
2022-11-05T06:15:03.642Z,2.70
2022-11-05T06:17:31.609Z,3.50
2022-11-05T06:19:59.254Z,4.07
2022-11-05T06:22:27.220Z,4.77
2022-11-05T06:24:54.840Z,2.67
2022-11-05T06:27:23.091Z,3.33
2022-11-05T06:29:50.897Z,3.00
2022-11-05T06:32:19.940Z,2.97
2022-11-05T06:34:47.582Z,3.50
2022-11-05T06:37:15.576Z,2.87
2022-11-05T06:39:43.228Z,3.40
2022-11-05T06:42:18.320Z,3.50
2022-11-05T06:44:46.846Z,3.80
2022-11-05T06:47:14.949Z,2.93
2022-11-05T06:49:43.980Z,3.30
2022-11-05T06:52:12.367Z,3.17
2022-11-05T06:54:40.759Z,2.80
2022-11-05T06:57:09.538Z,3.10
2022-11-05T06:59:37.412Z,3.20
2022-11-05T07:02:05.354Z,3.97
2022-11-05T07:04:33.408Z,4.77
2022-11-05T07:07:02.987Z,3.40
2022-11-05T07:09:30.744Z,4.90
2022-11-05T07:11:58.541Z,4.00
2022-11-05T07:14:26.197Z,4.77
2022-11-05T07:16:53.873Z,4.60
2022-11-05T07:19:21.962Z,4.57
2022-11-05T07:21:51.360Z,4.40
2022-11-05T07:24:20.330Z,4.93
2022-11-05T07:26:47.997Z,4.23
2022-11-05T07:29:15.615Z,4.37
2022-11-05T07:31:43.280Z,5.10
2022-11-05T07:34:10.929Z,5.13
2022-11-05T07:36:40.071Z,4.13
2022-11-05T07:39:07.837Z,6.83
2022-11-05T07:41:37.698Z,4.90
2022-11-05T07:44:05.421Z,4.33
2022-11-05T07:46:33.067Z,5.23
2022-11-05T07:49:00.761Z,5.37
2022-11-05T07:51:28.866Z,5.17
2022-11-05T07:53:56.588Z,4.70
2022-11-05T07:56:24.763Z,5.53
2022-11-05T07:58:53.763Z,4.20
2022-11-05T08:01:21.920Z,4.37
2022-11-05T08:03:49.735Z,3.80
2022-11-05T08:06:17.415Z,3.83
2022-11-05T08:08:45.056Z,4.40
2022-11-05T08:11:13.194Z,3.63
2022-11-05T08:13:42.727Z,3.27
2022-11-05T08:16:12.569Z,2.90
2022-11-05T08:18:40.275Z,3.37
2022-11-05T08:21:09.220Z,4.03
2022-11-05T08:23:38.603Z,2.53
2022-11-05T08:26:07.077Z,4.10
2022-11-05T08:28:34.711Z,3.90
2022-11-05T08:31:02.712Z,3.37
2022-11-05T08:33:33.098Z,3.60
2022-11-05T08:36:03.347Z,3.40
2022-11-05T08:38:31.341Z,3.27
2022-11-05T08:41:00.382Z,3.00
2022-11-05T08:43:28.117Z,2.33
2022-11-05T08:45:56.536Z,2.23
2022-11-05T08:48:24.232Z,2.80
2022-11-05T08:50:53.528Z,2.43
2022-11-05T08:53:21.253Z,2.27
2022-11-05T08:55:50.971Z,2.97
2022-11-05T08:58:20.667Z,2.37
2022-11-05T09:00:50.642Z,2.10
2022-11-05T09:03:19.300Z,2.53
2022-11-05T09:05:47.621Z,1.37
2022-11-05T09:08:18.580Z,1.70
2022-11-05T09:10:50.059Z,1.40
2022-11-05T09:13:19.770Z,1.47
2022-11-05T09:15:49.011Z,1.87
2022-11-05T09:18:18.205Z,0.87
2022-11-05T09:20:46.518Z,1.27
2022-11-05T09:23:16.116Z,1.37
2022-11-05T09:25:45.116Z,1.60
2022-11-05T09:28:16.841Z,1.70
2022-11-05T09:30:46.893Z,1.30
2022-11-05T09:33:14.697Z,1.20
2022-11-05T09:35:43.000Z,1.70
2022-11-05T09:38:11.545Z,2.27
2022-11-05T09:40:44.096Z,1.63
2022-11-05T09:43:19.562Z,2.00
2022-11-05T09:45:51.402Z,1.73
2022-11-05T09:48:24.585Z,1.87
2022-11-05T09:50:54.964Z,1.60
2022-11-05T09:53:24.372Z,1.10
2022-11-05T09:55:57.597Z,1.33
2022-11-05T09:58:39.867Z,1.47
2022-11-05T10:01:15.769Z,1.90
2022-11-05T10:03:47.013Z,1.53
2022-11-05T10:06:21.833Z,1.57
2022-11-05T10:08:55.605Z,2.33
2022-11-05T10:11:31.337Z,0.83
2022-11-05T10:14:02.789Z,1.63
2022-11-05T10:16:35.984Z,1.27
2022-11-05T10:19:10.685Z,0.93
2022-11-05T10:22:05.088Z,1.13
2022-11-05T10:24:28.319Z,1.37
2022-11-05T10:26:58.587Z,1.93
2022-11-05T10:29:30.238Z,1.80
2022-11-05T10:31:59.747Z,1.27
2022-11-05T10:34:30.522Z,1.13
2022-11-05T10:36:58.429Z,1.33
2022-11-05T10:39:27.650Z,1.53
2022-11-05T10:42:24.896Z,1.80
2022-11-05T10:45:00.584Z,1.10
2022-11-05T10:47:45.101Z,1.20
2022-11-05T10:50:17.465Z,0.70
2022-11-05T10:52:55.378Z,0.80
2022-11-05T10:55:26.169Z,0.40
2022-11-05T10:57:57.579Z,0.43
2022-11-05T11:00:28.366Z,0.20
2022-11-05T11:02:59.322Z,0.20
2022-11-05T11:05:30.779Z,0.37
2022-11-05T11:08:05.490Z,1.17
2022-11-05T11:10:49.769Z,0.30
2022-11-05T11:13:22.875Z,0.53
2022-11-05T11:15:51.395Z,0.70
2022-11-05T11:18:27.430Z,0.40
2022-11-05T11:21:05.603Z,0.90
2022-11-05T11:23:37.959Z,0.50
2022-11-05T11:26:07.416Z,0.30
2022-11-05T11:28:39.134Z,0.30
2022-11-05T11:31:12.317Z,0.30
2022-11-05T11:33:43.540Z,0.70
2022-11-05T11:36:13.781Z,0.57
2022-11-05T11:38:42.560Z,0.90
2022-11-05T11:41:24.990Z,0.50
2022-11-05T11:43:58.094Z,0.40
2022-11-05T11:46:26.845Z,0.30
2022-11-05T11:48:54.573Z,0.30
2022-11-05T11:51:35.072Z,0.50
2022-11-05T11:54:04.215Z,0.30
2022-11-05T11:56:44.656Z,0.20
2022-11-05T11:59:40.538Z,0.50
2022-11-05T12:02:35.299Z,0.50
2022-11-05T12:05:37.121Z,0.40
2022-11-05T12:08:19.574Z,0.40
2022-11-05T12:10:59.076Z,0.67
2022-11-05T12:13:49.336Z,1.23
2022-11-05T12:16:27.502Z,0.73
2022-11-05T12:19:03.886Z,1.10
2022-11-05T12:21:52.534Z,0.97
2022-11-05T12:24:55.399Z,0.87
2022-11-05T12:27:34.523Z,1.00
2022-11-05T12:30:09.169Z,1.00
2022-11-05T12:32:55.854Z,0.77
2022-11-05T12:35:45.743Z,1.07
2022-11-05T12:38:27.330Z,1.00
2022-11-05T12:41:12.555Z,1.30
2022-11-05T12:43:53.100Z,1.30
2022-11-05T12:46:28.322Z,0.97
2022-11-05T12:49:20.197Z,1.50
2022-11-05T12:52:02.966Z,1.93
2022-11-05T12:54:44.499Z,1.70
2022-11-05T12:57:15.279Z,1.30
2022-11-05T12:59:51.545Z,1.87
2022-11-05T13:02:27.877Z,1.80
2022-11-05T13:05:01.939Z,3.13
2022-11-05T13:07:34.430Z,2.53
2022-11-05T13:10:06.930Z,2.63
2022-11-05T13:12:40.281Z,2.83
2022-11-05T13:15:21.164Z,2.87
2022-11-05T13:17:52.965Z,3.40
2022-11-05T13:20:25.317Z,2.53
2022-11-05T13:22:59.063Z,2.37
2022-11-05T13:25:29.623Z,2.10
2022-11-05T13:28:03.803Z,3.13
2022-11-05T13:30:37.293Z,3.27
2022-11-05T13:33:11.875Z,2.80
2022-11-05T13:35:46.213Z,3.57
2022-11-05T13:38:38.991Z,2.40
2022-11-05T13:41:21.594Z,2.70
2022-11-05T13:44:05.947Z,2.90
2022-11-05T13:46:56.227Z,2.63
2022-11-05T13:49:52.964Z,2.73
2022-11-05T13:52:36.519Z,3.40
2022-11-05T13:55:49.390Z,2.33
2022-11-05T13:58:45.973Z,2.37
2022-11-05T14:01:24.788Z,2.60
2022-11-05T14:03:54.993Z,2.73
2022-11-05T14:06:28.805Z,2.30
2022-11-05T14:09:02.002Z,1.93
2022-11-05T14:11:33.732Z,2.57
2022-11-05T14:14:04.179Z,1.60
2022-11-05T14:16:49.011Z,1.80
2022-11-05T14:19:34.544Z,2.50
2022-11-05T14:22:42.359Z,2.07
2022-11-05T14:25:56.930Z,1.43
2022-11-05T14:28:51.852Z,1.23
2022-11-05T14:31:54.434Z,1.33
2022-11-05T14:34:24.018Z,1.23
2022-11-05T14:37:20.753Z,1.60
2022-11-05T14:39:48.573Z,1.30
2022-11-05T14:42:21.217Z,0.80
2022-11-05T14:45:03.074Z,0.90
2022-11-05T14:47:34.272Z,1.10
2022-11-05T14:50:09.463Z,0.87
2022-11-05T14:52:39.069Z,1.50
2022-11-05T14:55:23.228Z,0.77
2022-11-05T14:58:21.162Z,1.00
2022-11-05T15:00:51.201Z,1.27
2022-11-05T15:04:02.994Z,0.97
2022-11-05T15:06:36.636Z,1.60
2022-11-05T15:09:27.677Z,1.53
2022-11-05T15:12:19.549Z,1.07
2022-11-05T15:14:58.291Z,1.17
2022-11-05T15:17:30.711Z,2.10
2022-11-05T15:20:10.234Z,1.23
2022-11-05T15:22:42.981Z,0.97
2022-11-05T15:25:18.812Z,1.27
2022-11-05T15:28:06.593Z,1.33
2022-11-05T15:30:34.464Z,1.60
2022-11-05T15:33:19.930Z,1.20
2022-11-05T15:35:47.594Z,1.00
2022-11-05T15:38:31.440Z,1.00
2022-11-05T15:41:01.293Z,1.50
2022-11-05T15:43:29.241Z,1.40
2022-11-05T15:46:06.101Z,2.43
2022-11-05T15:48:37.148Z,1.40
2022-11-05T15:51:05.114Z,1.87
2022-11-05T15:56:30.875Z,2.70
2022-11-05T15:59:02.864Z,2.10
2022-11-05T16:01:34.337Z,1.77
2022-11-05T16:04:15.841Z,1.57
2022-11-05T16:06:46.236Z,1.97
2022-11-05T16:09:25.433Z,2.17
2022-11-05T16:12:14.651Z,2.00
2022-11-05T16:14:42.783Z,1.57
2022-11-05T16:17:20.835Z,2.37
2022-11-05T16:19:50.733Z,2.37
2022-11-05T16:22:18.720Z,1.17
2022-11-05T16:24:47.832Z,2.27
2022-11-05T16:27:19.699Z,2.00
2022-11-05T16:29:51.179Z,2.10
2022-11-05T16:32:26.857Z,1.97
2022-11-05T16:35:02.417Z,2.17
2022-11-05T16:37:46.332Z,2.27
2022-11-05T16:40:19.940Z,1.90
2022-11-05T16:42:48.867Z,2.67
2022-11-05T16:45:19.500Z,2.57
2022-11-05T16:47:48.219Z,2.47
2022-11-05T16:50:20.816Z,3.37
2022-11-05T16:52:49.529Z,2.83
2022-11-05T16:55:17.907Z,2.43
2022-11-05T16:57:49.160Z,2.97
2022-11-05T17:00:19.217Z,2.27
2022-11-05T17:02:47.386Z,2.53
2022-11-05T17:05:21.283Z,2.27
2022-11-05T17:07:48.983Z,2.77
2022-11-05T17:10:17.024Z,2.43
2022-11-05T17:12:45.527Z,2.40
2022-11-05T17:15:18.920Z,3.17
2022-11-05T17:17:47.147Z,3.80
2022-11-05T17:20:27.246Z,3.30
2022-11-05T17:22:56.078Z,2.83
2022-11-05T17:25:24.349Z,3.40
2022-11-05T17:27:52.593Z,4.13
2022-11-05T17:30:20.376Z,3.00
2022-11-05T17:32:48.078Z,3.60
2022-11-05T17:35:16.872Z,3.43
2022-11-05T17:37:45.903Z,4.73
2022-11-05T17:40:16.374Z,3.50
2022-11-05T17:42:44.588Z,4.80
2022-11-05T17:45:13.664Z,4.37
2022-11-05T17:47:42.401Z,3.17
2022-11-05T17:50:13.318Z,5.23
2022-11-05T17:52:41.160Z,4.17
2022-11-05T17:55:16.737Z,5.03
2022-11-05T17:57:46.095Z,5.33
2022-11-05T18:00:15.318Z,5.23
2022-11-05T18:02:43.159Z,5.90
2022-11-05T18:05:11.725Z,5.60
2022-11-05T18:07:39.616Z,5.53
2022-11-05T18:10:09.285Z,5.50
2022-11-05T18:12:38.557Z,5.90
2022-11-05T18:15:08.310Z,4.57
2022-11-05T18:17:36.552Z,4.90
2022-11-05T18:20:04.987Z,4.93
2022-11-05T18:22:32.681Z,5.13
2022-11-05T18:25:00.702Z,4.57
2022-11-05T18:27:28.453Z,4.13
2022-11-05T18:29:57.841Z,4.30
2022-11-05T18:32:25.528Z,4.57
2022-11-05T18:34:53.549Z,5.07
2022-11-05T18:37:21.266Z,4.43
2022-11-05T18:39:52.219Z,4.67
2022-11-05T18:42:20.598Z,4.00
2022-11-05T18:44:48.800Z,4.50
2022-11-05T18:47:17.931Z,3.77
2022-11-05T18:49:45.934Z,5.23
2022-11-05T18:52:13.736Z,5.73
2022-11-05T18:54:42.066Z,5.33
2022-11-05T18:57:09.727Z,6.40
2022-11-05T18:59:39.650Z,8.33
2022-11-05T19:02:08.462Z,9.20
2022-11-05T19:04:38.448Z,6.07
2022-11-05T19:07:06.912Z,6.17
2022-11-05T19:09:35.288Z,7.50
2022-11-05T19:12:03.452Z,4.80
2022-11-05T19:14:31.550Z,4.80
2022-11-05T19:17:00.278Z,4.20
2022-11-05T19:19:29.075Z,3.40
2022-11-05T19:21:58.655Z,3.70
2022-11-05T19:24:26.493Z,6.97
2022-11-05T19:26:54.559Z,4.10
2022-11-05T19:29:22.196Z,4.37
2022-11-05T19:31:50.496Z,5.37
2022-11-05T19:34:18.183Z,4.83
2022-11-05T19:36:46.514Z,5.00
2022-11-05T19:39:16.327Z,5.17
2022-11-05T19:41:44.325Z,5.50
2022-11-05T19:44:12.140Z,4.97
2022-11-05T19:46:40.449Z,5.40
2022-11-05T19:49:08.104Z,4.93
2022-11-05T19:51:36.466Z,5.10
2022-11-05T19:54:05.279Z,4.97
2022-11-05T19:56:37.013Z,7.33
2022-11-05T19:59:06.448Z,18.17
2022-11-05T20:01:35.564Z,18.37
2022-11-05T20:04:03.552Z,18.43
2022-11-05T20:06:33.580Z,11.77
2022-11-05T20:11:54.811Z,6.47
2022-11-05T20:14:23.433Z,5.63
2022-11-05T20:16:51.504Z,6.53
2022-11-05T20:19:22.322Z,5.90
2022-11-05T20:21:50.677Z,4.43
2022-11-05T20:24:24.371Z,5.57
2022-11-05T20:26:55.815Z,5.77
2022-11-05T20:29:29.080Z,4.53
2022-11-05T20:32:02.383Z,3.67
2022-11-05T20:34:30.408Z,4.50
2022-11-05T20:36:58.708Z,4.87
2022-11-05T20:39:26.452Z,4.73
2022-11-05T20:41:57.116Z,3.90
2022-11-05T20:44:24.835Z,4.13
2022-11-05T20:46:52.970Z,3.90
2022-11-05T20:49:25.118Z,4.47
2022-11-05T20:51:54.113Z,3.93
2022-11-05T20:54:21.774Z,3.83
2022-11-05T20:56:49.452Z,3.63
2022-11-05T20:59:18.472Z,3.83
2022-11-05T21:01:46.303Z,3.33
2022-11-05T21:04:14.006Z,3.70
2022-11-05T21:06:42.013Z,4.17
2022-11-05T21:09:09.754Z,2.60
2022-11-05T21:11:51.985Z,4.20
2022-11-05T21:14:21.078Z,3.63
2022-11-05T21:16:48.791Z,4.63
2022-11-05T21:19:16.600Z,3.57
2022-11-05T21:21:44.297Z,3.53
2022-11-05T21:24:11.941Z,2.73
2022-11-05T21:26:40.141Z,3.83
2022-11-05T21:29:08.628Z,5.20
2022-11-05T21:31:38.844Z,3.10
2022-11-05T21:34:06.708Z,2.60
2022-11-05T21:36:35.246Z,2.87
2022-11-05T21:39:04.853Z,3.43
2022-11-05T21:41:34.605Z,3.50
2022-11-05T21:44:03.905Z,3.10
2022-11-05T21:46:32.005Z,3.97
2022-11-05T21:49:02.290Z,2.93
2022-11-05T21:51:47.960Z,3.77
2022-11-05T21:54:33.121Z,4.17
2022-11-05T21:57:18.816Z,3.30
2022-11-05T21:59:49.578Z,4.30
2022-11-05T22:02:20.045Z,3.63
2022-11-05T22:04:51.143Z,4.13
2022-11-05T22:07:20.512Z,3.23
2022-11-05T22:09:48.562Z,3.27
2022-11-05T22:12:16.373Z,3.30
2022-11-05T22:14:44.350Z,4.27
2022-11-05T22:17:13.661Z,5.37
2022-11-05T22:19:41.362Z,3.30
2022-11-05T22:22:10.572Z,3.90
2022-11-05T22:24:38.331Z,2.63
2022-11-05T22:27:07.608Z,3.50
2022-11-05T22:29:37.705Z,3.07
2022-11-05T22:32:06.395Z,2.67
2022-11-05T22:34:34.290Z,2.60
2022-11-05T22:37:01.999Z,2.97
2022-11-05T22:39:31.353Z,2.90
2022-11-05T22:42:04.198Z,3.07
2022-11-05T22:44:35.119Z,4.83
2022-11-05T22:47:03.124Z,3.40
2022-11-05T22:49:30.789Z,2.20
2022-11-05T22:51:58.843Z,2.40
2022-11-05T22:54:26.788Z,4.23
2022-11-05T22:56:56.365Z,3.83
2022-11-05T22:59:24.259Z,4.43
2022-11-05T23:01:52.653Z,1.70
2022-11-05T23:04:20.439Z,1.30
2022-11-05T23:07:05.771Z,3.53
2022-11-05T23:09:53.082Z,2.67
2022-11-05T23:12:25.909Z,1.27
2022-11-05T23:14:54.336Z,1.70
2022-11-05T23:17:39.813Z,1.67
2022-11-05T23:20:29.628Z,1.87
2022-11-05T23:23:15.424Z,1.50
2022-11-05T23:25:43.708Z,1.03
2022-11-05T23:28:13.745Z,1.43
2022-11-05T23:30:58.932Z,2.57
2022-11-05T23:33:26.821Z,3.93
2022-11-05T23:36:12.864Z,6.70
2022-11-05T23:38:40.755Z,7.07
2022-11-05T23:41:26.557Z,5.83
2022-11-05T23:44:13.155Z,8.57
2022-11-05T23:46:58.799Z,7.37
2022-11-05T23:49:26.737Z,8.23
2022-11-05T23:51:55.112Z,8.83
2022-11-05T23:54:22.919Z,8.13
2022-11-05T23:56:51.011Z,8.43
2022-11-05T23:59:20.040Z,7.67
